createdAt,value
2018-12-12T00:01:13.442Z,98506.18
2018-12-12T00:03:41.711Z,98513.66
2018-12-12T00:06:09.980Z,98508.81
2018-12-12T00:08:38.242Z,98511.95
2018-12-12T00:11:06.492Z,98504.70
2018-12-12T00:13:34.762Z,98509.91
2018-12-12T00:16:03.011Z,98508.03
2018-12-12T00:18:31.277Z,98512.95
2018-12-12T00:20:59.537Z,98504.61
2018-12-12T00:23:28.513Z,98508.78
2018-12-12T00:25:56.782Z,98504.50
2018-12-12T00:28:25.028Z,98511.98
2018-12-12T00:30:53.300Z,98503.07
2018-12-12T00:33:21.552Z,98506.86
2018-12-12T00:35:49.798Z,98506.32
2018-12-12T00:38:18.062Z,98509.09
2018-12-12T00:40:46.300Z,98501.86
2018-12-12T00:43:14.555Z,98503.27
2018-12-12T00:45:42.821Z,98503.91
2018-12-12T00:48:11.069Z,98511.75
2018-12-12T00:50:39.350Z,98506.80
2018-12-12T00:53:07.625Z,98507.78
2018-12-12T00:55:35.891Z,98507.03
2018-12-12T00:58:04.281Z,98507.22
2018-12-12T01:00:32.524Z,98504.45
2018-12-12T01:03:00.773Z,98500.83
2018-12-12T01:05:29.040Z,98501.68
2018-12-12T01:07:57.295Z,98500.15
2018-12-12T01:10:25.609Z,98505.80
2018-12-12T01:12:53.868Z,98506.34
2018-12-12T01:15:22.117Z,98520.06
2018-12-12T01:17:50.405Z,98522.59
2018-12-12T01:20:18.685Z,98525.78
2018-12-12T01:22:46.948Z,98525.38
2018-12-12T01:25:15.201Z,98520.62
2018-12-12T01:27:43.476Z,98529.82
2018-12-12T01:30:11.800Z,98526.56
2018-12-12T01:32:40.148Z,98533.20
2018-12-12T01:35:08.409Z,98530.73
2018-12-12T01:37:36.684Z,98532.89
2018-12-12T01:40:06.139Z,98538.67
2018-12-12T01:42:34.405Z,98539.90
2018-12-12T01:45:02.653Z,98532.50
2018-12-12T01:47:30.898Z,98533.33
2018-12-12T01:49:59.149Z,98535.18
2018-12-12T01:52:27.396Z,98535.96
2018-12-12T01:54:55.676Z,98529.12
2018-12-12T01:57:23.933Z,98535.96
2018-12-12T01:59:52.294Z,98533.33
2018-12-12T02:02:20.620Z,98532.81
2018-12-12T02:04:48.931Z,98530.22
2018-12-12T02:07:17.296Z,98529.30
2018-12-12T02:09:45.542Z,98531.97
2018-12-12T02:12:13.782Z,98528.29
2018-12-12T02:14:42.134Z,98532.13
2018-12-12T02:17:10.387Z,98530.00
2018-12-12T02:19:38.705Z,98526.32
2018-12-12T02:22:07.098Z,98526.06
2018-12-12T02:24:35.469Z,98536.92
2018-12-12T02:27:03.764Z,98539.04
2018-12-12T02:29:32.024Z,98534.50
2018-12-12T02:32:00.280Z,98542.05
2018-12-12T02:34:28.623Z,98539.70
2018-12-12T02:36:56.872Z,98539.19
2018-12-12T02:39:25.174Z,98539.11
2018-12-12T02:41:53.462Z,98543.42
2018-12-12T02:44:21.692Z,98548.30
2018-12-12T02:46:49.948Z,98550.64
2018-12-12T02:49:18.307Z,98550.49
2018-12-12T02:51:46.538Z,98548.09
2018-12-12T02:54:14.805Z,98548.48
2018-12-12T02:56:43.040Z,98550.90
2018-12-12T02:59:11.415Z,98555.31
2018-12-12T03:01:39.678Z,98552.58
2018-12-12T03:04:07.939Z,98558.45
2018-12-12T03:06:36.244Z,98555.52
2018-12-12T03:09:06.543Z,98558.25
2018-12-12T03:11:34.846Z,98553.28
2018-12-12T03:14:03.089Z,98556.21
2018-12-12T03:16:31.352Z,98551.45
2018-12-12T03:19:00.295Z,98550.67
2018-12-12T03:21:28.510Z,98545.16
2018-12-12T03:23:56.779Z,98549.30
2018-12-12T03:26:25.030Z,98549.84
2018-12-12T03:28:53.301Z,98551.20
2018-12-12T03:31:21.676Z,98550.69
2018-12-12T03:33:49.964Z,98546.96
2018-12-12T03:36:18.268Z,98559.80
2018-12-12T03:38:46.627Z,98552.73
2018-12-12T03:41:14.882Z,98548.75
2018-12-12T03:43:43.149Z,98555.59
2018-12-12T03:46:11.383Z,98555.81
2018-12-12T03:48:39.634Z,98559.31
2018-12-12T03:51:07.904Z,98564.44
2018-12-12T03:53:36.176Z,98563.92
2018-12-12T03:56:04.447Z,98559.57
2018-12-12T03:58:32.717Z,98564.44
2018-12-12T04:01:00.968Z,98566.82
2018-12-12T04:03:29.516Z,98569.50
2018-12-12T04:05:57.771Z,98563.31
2018-12-12T04:08:26.032Z,98569.20
2018-12-12T04:10:54.341Z,98570.95
2018-12-12T04:13:22.606Z,98574.67
2018-12-12T04:15:50.851Z,98575.45
2018-12-12T04:18:19.117Z,98577.02
2018-12-12T04:20:47.360Z,98577.69
2018-12-12T04:23:15.614Z,98580.18
2018-12-12T04:25:43.848Z,98586.17
2018-12-12T04:28:12.106Z,98585.13
2018-12-12T04:30:40.369Z,98581.55
2018-12-12T04:33:08.604Z,98585.46
2018-12-12T04:35:36.852Z,98585.09
2018-12-12T04:38:05.127Z,98586.31
2018-12-12T04:40:33.408Z,98587.61
2018-12-12T04:43:01.680Z,98581.44
2018-12-12T04:45:29.932Z,98576.61
2018-12-12T04:47:58.208Z,98573.52
2018-12-12T04:50:26.476Z,98573.81
2018-12-12T04:52:54.819Z,98580.25
2018-12-12T04:55:23.077Z,98573.41
2018-12-12T04:57:51.320Z,98575.37
2018-12-12T05:00:19.564Z,98579.16
2018-12-12T05:05:31.060Z,98581.55
2018-12-12T05:07:59.348Z,98579.69
2018-12-12T05:10:27.603Z,98578.34
2018-12-12T05:12:55.868Z,98583.48
2018-12-12T05:15:24.132Z,98575.28
2018-12-12T05:17:52.856Z,98580.97
2018-12-12T05:20:21.125Z,98576.39
2018-12-12T05:22:49.400Z,98579.77
2018-12-12T05:25:17.652Z,98576.61
2018-12-12T05:27:45.920Z,98588.22
2018-12-12T05:30:14.179Z,98583.16
2018-12-12T05:32:42.454Z,98580.23
2018-12-12T05:35:10.708Z,98581.56
2018-12-12T05:40:22.300Z,98583.48
2018-12-12T05:42:50.559Z,98582.83
2018-12-12T05:45:19.672Z,98586.05
2018-12-12T05:47:47.940Z,98590.98
2018-12-12T05:50:16.210Z,98591.63
2018-12-12T05:52:44.485Z,98592.48
2018-12-12T05:55:12.735Z,98596.22
2018-12-12T05:57:40.991Z,98592.73
2018-12-12T06:00:10.385Z,98599.53
2018-12-12T06:02:38.650Z,98598.84
2018-12-12T06:05:07.087Z,98602.02
2018-12-12T06:07:35.365Z,98609.77
2018-12-12T06:10:05.484Z,98611.80
2018-12-12T06:12:33.750Z,98614.53
2018-12-12T06:15:02.022Z,98613.95
2018-12-12T06:17:30.280Z,98612.64
2018-12-12T06:19:58.914Z,98618.20
2018-12-12T06:22:27.933Z,98615.84
2018-12-12T06:24:56.204Z,98623.88
2018-12-12T06:27:24.460Z,98614.39
2018-12-12T06:29:52.712Z,98615.92
2018-12-12T06:32:20.981Z,98619.31
2018-12-12T06:34:49.246Z,98620.73
2018-12-12T06:37:17.519Z,98615.11
2018-12-12T06:39:45.812Z,98615.11
2018-12-12T06:42:14.101Z,98620.02
2018-12-12T06:44:42.383Z,98629.22
2018-12-12T06:47:10.753Z,98631.43
2018-12-12T06:49:39.021Z,98635.11
2018-12-12T06:52:07.324Z,98634.99
2018-12-12T06:54:35.616Z,98636.30
2018-12-12T06:57:03.906Z,98640.45
2018-12-12T06:59:32.243Z,98645.22
2018-12-12T07:02:00.696Z,98644.86
2018-12-12T07:04:29.141Z,98647.27
2018-12-12T07:06:58.185Z,98654.11
2018-12-12T07:09:26.479Z,98649.34
2018-12-12T07:11:54.752Z,98649.33
2018-12-12T07:14:23.051Z,98648.11
2018-12-12T07:16:51.339Z,98644.52
2018-12-12T07:19:19.613Z,98643.86
2018-12-12T07:21:47.910Z,98648.06
2018-12-12T07:24:16.204Z,98645.28
2018-12-12T07:26:44.499Z,98653.30
2018-12-12T07:29:12.794Z,98652.59
2018-12-12T07:31:41.085Z,98651.42
2018-12-12T07:34:09.374Z,98651.90
2018-12-12T07:36:37.673Z,98656.76
2018-12-12T07:39:08.242Z,98656.62
2018-12-12T07:41:36.651Z,98660.25
2018-12-12T07:44:04.958Z,98662.05
2018-12-12T07:46:33.612Z,98661.64
2018-12-12T07:49:02.481Z,98659.92
2018-12-12T07:51:30.778Z,98664.03
2018-12-12T07:53:59.077Z,98665.06
2018-12-12T07:56:27.345Z,98672.38
2018-12-12T07:58:55.637Z,98666.23
2018-12-12T08:01:23.937Z,98666.09
2018-12-12T08:03:52.296Z,98671.45
2018-12-12T08:06:20.627Z,98667.39
2018-12-12T08:08:48.909Z,98667.70
2018-12-12T08:11:17.277Z,98668.53
2018-12-12T08:13:45.556Z,98671.64
2018-12-12T08:16:13.937Z,98671.53
2018-12-12T08:18:42.468Z,98678.95
2018-12-12T08:21:10.736Z,98676.52
2018-12-12T08:23:39.021Z,98672.61
2018-12-12T08:26:07.355Z,98681.50
2018-12-12T08:28:35.635Z,98685.59
2018-12-12T08:31:03.894Z,98648.53
2018-12-12T08:33:32.196Z,98686.53
2018-12-12T08:36:00.478Z,98688.94
2018-12-12T08:38:28.761Z,98685.79
2018-12-12T08:40:57.159Z,98680.61
2018-12-12T08:43:25.538Z,98687.38
2018-12-12T08:45:53.837Z,98688.48
2018-12-12T08:48:22.116Z,98692.69
2018-12-12T08:50:50.393Z,98689.05
2018-12-12T08:53:18.629Z,98688.07
2018-12-12T08:55:46.881Z,98687.61
2018-12-12T08:58:15.228Z,98689.11
2018-12-12T09:00:43.452Z,98688.34
2018-12-12T09:03:17.390Z,98692.95
2018-12-12T09:05:42.041Z,98698.69
2018-12-12T09:08:10.287Z,98691.02
2018-12-12T09:10:38.556Z,98697.52
2018-12-12T09:13:06.796Z,98693.17
2018-12-12T09:15:35.037Z,98693.36
2018-12-12T09:18:03.309Z,98692.27
2018-12-12T09:20:31.566Z,98696.45
2018-12-12T09:22:59.887Z,98691.20
2018-12-12T09:25:28.191Z,98692.13
2018-12-12T09:27:56.444Z,98693.33
2018-12-12T09:30:24.699Z,98695.11
2018-12-12T09:32:52.961Z,98693.59
2018-12-12T09:35:21.247Z,98696.79
2018-12-12T09:37:49.484Z,98698.58
2018-12-12T09:40:17.793Z,98691.69
2018-12-12T09:42:46.020Z,98698.17
2018-12-12T09:45:14.316Z,98699.66
2018-12-12T09:47:42.580Z,98697.83
2018-12-12T09:50:10.825Z,98693.83
2018-12-12T09:52:39.075Z,98704.89
2018-12-12T09:55:07.384Z,98695.42
2018-12-12T09:57:35.623Z,98702.70
2018-12-12T10:00:05.344Z,98704.31
2018-12-12T10:02:33.608Z,98706.89
2018-12-12T10:05:01.948Z,98702.84
2018-12-12T10:07:30.300Z,98703.83
2018-12-12T10:09:58.562Z,98710.45
2018-12-12T10:12:26.814Z,98707.91
2018-12-12T10:14:55.088Z,98714.19
2018-12-12T10:17:23.344Z,98713.87
2018-12-12T10:19:51.612Z,98711.65
2018-12-12T10:22:19.849Z,98713.77
2018-12-12T10:24:48.109Z,98714.50
2018-12-12T10:27:16.569Z,98715.35
2018-12-12T10:29:44.854Z,98708.50
2018-12-12T10:32:13.097Z,98710.48
2018-12-12T10:34:41.365Z,98705.86
2018-12-12T10:37:09.603Z,98705.00
2018-12-12T10:39:37.850Z,98701.88
2018-12-12T10:42:06.169Z,98688.22
2018-12-12T10:44:34.409Z,98681.23
2018-12-12T10:47:02.662Z,98677.50
2018-12-12T10:49:30.977Z,98670.45
2018-12-12T10:51:59.215Z,98673.11
2018-12-12T10:54:27.502Z,98668.81
2018-12-12T10:56:55.740Z,98666.63
2018-12-12T10:59:23.996Z,98659.23
2018-12-12T11:04:42.751Z,98654.31
2018-12-12T11:07:11.020Z,98659.36
2018-12-12T11:09:39.279Z,98654.69
2018-12-12T11:12:07.528Z,98655.55
2018-12-12T11:14:35.800Z,98653.69
2018-12-12T11:17:04.169Z,98652.73
2018-12-12T11:19:32.420Z,98650.98
2018-12-12T11:22:00.687Z,98660.50
2018-12-12T11:24:28.931Z,98651.69
2018-12-12T11:26:57.193Z,98639.75
2018-12-12T11:29:25.448Z,98646.48
2018-12-12T11:31:53.705Z,98647.38
2018-12-12T11:34:21.954Z,98640.92
2018-12-12T11:36:50.191Z,98641.72
2018-12-12T11:39:18.452Z,98639.05
2018-12-12T11:41:46.769Z,98636.14
2018-12-12T11:44:15.012Z,98636.91
2018-12-12T11:46:43.268Z,98635.52
2018-12-12T11:49:11.620Z,98638.33
2018-12-12T11:51:39.881Z,98646.57
2018-12-12T11:54:08.144Z,98642.73
2018-12-12T11:56:36.441Z,98643.92
2018-12-12T11:59:04.770Z,98645.80
2018-12-12T12:01:33.004Z,98636.13
2018-12-12T12:04:01.248Z,98640.35
2018-12-12T12:06:29.504Z,98637.23
2018-12-12T12:08:57.754Z,98633.81
2018-12-12T12:11:26.060Z,98641.72
2018-12-12T12:13:54.318Z,98643.56
2018-12-12T12:16:22.566Z,98634.21
2018-12-12T12:18:50.901Z,98636.00
2018-12-12T12:21:19.158Z,98632.69
2018-12-12T12:23:47.405Z,98632.06
2018-12-12T12:26:16.124Z,98641.97
2018-12-12T12:28:44.391Z,98638.35
2018-12-12T12:31:12.653Z,98639.38
2018-12-12T12:33:41.572Z,98628.98
2018-12-12T12:36:09.833Z,98626.51
2018-12-12T12:38:38.068Z,98626.19
2018-12-12T12:41:06.363Z,98619.58
2018-12-12T12:43:34.616Z,98622.31
2018-12-12T12:46:02.875Z,98627.41
2018-12-12T12:48:31.145Z,98621.91
2018-12-12T12:50:59.410Z,98621.36
2018-12-12T12:53:28.476Z,98619.25
2018-12-12T12:55:56.740Z,98613.36
2018-12-12T12:58:25.005Z,98612.95
2018-12-12T13:00:53.245Z,98613.78
2018-12-12T13:03:21.493Z,98611.63
2018-12-12T13:05:49.744Z,98611.05
2018-12-12T13:08:18.005Z,98612.84
2018-12-12T13:10:46.269Z,98611.08
2018-12-12T13:13:14.689Z,98616.41
2018-12-12T13:15:43.387Z,98499.17
2018-12-12T13:18:11.707Z,98610.39
2018-12-12T13:20:39.952Z,98615.94
2018-12-12T13:23:08.272Z,98592.64
2018-12-12T13:25:36.507Z,98614.08
2018-12-12T13:28:05.014Z,98616.65
2018-12-12T13:30:33.280Z,98617.35
2018-12-12T13:33:01.512Z,98624.64
2018-12-12T13:35:29.828Z,98618.42
2018-12-12T13:37:58.149Z,98615.43
2018-12-12T13:40:26.457Z,98617.23
2018-12-12T13:42:54.828Z,98609.74
2018-12-12T13:45:23.081Z,98610.06
2018-12-12T13:47:51.345Z,98610.73
2018-12-12T13:50:19.660Z,98619.34
2018-12-12T13:52:47.943Z,98612.81
2018-12-12T13:55:16.193Z,98616.63
2018-12-12T13:57:44.459Z,98587.43
2018-12-12T14:00:12.702Z,98614.39
2018-12-12T14:02:40.969Z,98614.63
2018-12-12T14:05:09.210Z,98619.15
2018-12-12T14:07:37.459Z,98617.20
2018-12-12T14:10:05.831Z,98615.45
2018-12-12T14:12:34.076Z,98613.53
2018-12-12T14:15:02.346Z,98611.17
2018-12-12T14:17:30.603Z,98500.28
2018-12-12T14:19:58.855Z,98620.38
2018-12-12T14:22:27.109Z,98611.52
2018-12-12T14:24:55.369Z,98608.16
2018-12-12T14:27:23.641Z,98604.84
2018-12-12T14:29:51.909Z,98605.25
2018-12-12T14:32:20.160Z,98604.30
2018-12-12T14:34:48.420Z,98607.55
2018-12-12T14:37:16.667Z,98604.49
2018-12-12T14:39:44.904Z,98606.23
2018-12-12T14:42:13.144Z,98591.77
2018-12-12T14:44:41.405Z,98609.45
2018-12-12T14:47:09.653Z,98615.41
2018-12-12T14:49:37.938Z,98619.73
2018-12-12T14:52:06.303Z,98620.17
2018-12-12T14:54:34.545Z,98625.24
2018-12-12T14:57:02.897Z,98622.03
2018-12-12T14:59:31.150Z,98621.99
2018-12-12T15:01:59.404Z,98621.14
2018-12-12T15:04:27.664Z,98615.28
2018-12-12T15:06:55.901Z,98618.74
2018-12-12T15:09:24.171Z,98612.51
2018-12-12T15:11:52.432Z,98607.44
2018-12-12T15:14:20.732Z,98610.28
2018-12-12T15:16:48.984Z,98609.56
2018-12-12T15:19:17.261Z,98607.38
2018-12-12T15:21:45.489Z,98607.61
2018-12-12T15:24:13.759Z,98611.11
2018-12-12T15:26:42.009Z,98608.50
2018-12-12T15:29:10.240Z,98616.06
2018-12-12T15:31:38.549Z,98610.28
2018-12-12T15:34:06.788Z,98615.39
2018-12-12T15:36:35.036Z,98617.03
2018-12-12T15:39:03.809Z,98612.55
2018-12-12T15:41:32.055Z,98616.11
2018-12-12T15:44:00.313Z,98613.48
2018-12-12T15:46:28.570Z,98620.99
2018-12-12T15:48:56.811Z,98617.88
2018-12-12T15:51:25.065Z,98600.45
2018-12-12T15:53:53.477Z,98620.28
2018-12-12T15:56:21.840Z,98616.11
2018-12-12T15:58:50.108Z,98622.09
2018-12-12T16:01:18.354Z,98619.56
2018-12-12T16:03:46.687Z,98612.27
2018-12-12T16:06:14.980Z,98615.55
2018-12-12T16:08:43.229Z,98614.84
2018-12-12T16:11:11.504Z,98617.54
2018-12-12T16:13:39.762Z,98614.36
2018-12-12T16:16:08.018Z,98619.42
2018-12-12T16:18:36.264Z,98619.14
2018-12-12T16:21:04.503Z,98614.83
2018-12-12T16:23:32.778Z,98598.45
2018-12-12T16:26:01.037Z,98612.79
2018-12-12T16:28:29.296Z,98614.80
2018-12-12T16:30:57.563Z,98611.13
2018-12-12T16:33:25.822Z,98612.33
2018-12-12T16:35:54.063Z,98615.71
2018-12-12T16:38:22.342Z,98590.22
2018-12-12T16:40:50.588Z,98612.13
2018-12-12T16:43:18.843Z,98611.16
2018-12-12T16:45:47.093Z,98609.97
2018-12-12T16:48:15.351Z,98610.34
2018-12-12T16:50:43.591Z,98584.12
2018-12-12T16:53:11.932Z,98612.88
2018-12-12T16:55:40.200Z,98608.89
2018-12-12T16:58:08.435Z,98612.89
2018-12-12T17:00:36.743Z,98609.74
2018-12-12T17:03:05.430Z,98611.19
2018-12-12T17:05:33.761Z,98610.52
2018-12-12T17:08:02.000Z,98613.36
2018-12-12T17:10:30.243Z,98612.88
2018-12-12T17:12:58.517Z,98610.22
2018-12-12T17:15:26.756Z,98612.34
2018-12-12T17:17:55.002Z,98607.99
2018-12-12T17:20:23.366Z,98603.47
2018-12-12T17:22:51.618Z,98594.42
2018-12-12T17:25:19.871Z,98589.89
2018-12-12T17:27:48.179Z,98596.77
2018-12-12T17:30:16.433Z,98597.38
2018-12-12T17:32:44.675Z,98596.77
2018-12-12T17:35:12.981Z,98601.71
2018-12-12T17:37:41.240Z,98598.09
2018-12-12T17:40:09.576Z,98599.92
2018-12-12T17:42:37.827Z,98597.80
2018-12-12T17:45:06.176Z,98594.42
2018-12-12T17:47:34.436Z,98595.02
2018-12-12T17:50:02.695Z,98601.79
2018-12-12T17:52:30.945Z,98602.82
2018-12-12T17:54:59.188Z,98606.55
2018-12-12T17:57:27.583Z,98602.86
2018-12-12T17:59:55.868Z,98604.50
2018-12-12T18:02:24.172Z,98598.62
2018-12-12T18:04:52.434Z,98596.24
2018-12-12T18:07:20.675Z,98594.98
2018-12-12T18:09:48.939Z,98591.36
2018-12-12T18:12:17.224Z,98595.81
2018-12-12T18:14:45.518Z,98596.13
2018-12-12T18:17:13.764Z,98592.59
2018-12-12T18:19:42.066Z,98594.67
2018-12-12T18:22:10.352Z,98591.11
2018-12-12T18:24:38.600Z,98590.77
2018-12-12T18:27:06.857Z,98593.05
2018-12-12T18:29:35.131Z,98586.09
2018-12-12T18:32:03.553Z,98588.02
2018-12-12T18:34:31.902Z,98590.41
2018-12-12T18:37:00.323Z,98587.27
2018-12-12T18:39:28.776Z,98593.80
2018-12-12T18:41:57.131Z,98589.96
2018-12-12T18:44:25.529Z,98588.84
2018-12-12T18:46:53.926Z,98585.09
2018-12-12T18:49:22.184Z,98587.17
2018-12-12T18:51:50.547Z,98582.55
2018-12-12T18:54:18.831Z,98583.37
2018-12-12T18:56:47.183Z,98579.02
2018-12-12T18:59:15.515Z,98579.25
2018-12-12T19:01:43.944Z,98579.70
2018-12-12T19:04:12.325Z,98587.36
2018-12-12T19:06:40.632Z,98587.58
2018-12-12T19:09:09.681Z,98585.31
2018-12-12T19:11:44.173Z,98590.37
2018-12-12T19:14:08.756Z,98593.94
2018-12-12T19:16:38.142Z,98588.09
2018-12-12T19:19:07.845Z,98588.80
2018-12-12T19:21:37.589Z,98583.27
2018-12-12T19:24:07.508Z,98577.95
2018-12-12T19:26:36.992Z,98586.50
2018-12-12T19:29:05.994Z,98584.34
2018-12-12T19:31:35.674Z,98582.00
2018-12-12T19:34:04.955Z,98584.41
2018-12-12T19:36:34.062Z,98588.27
2018-12-12T19:39:03.948Z,98584.59
2018-12-12T19:41:33.953Z,98585.00
2018-12-12T19:44:03.587Z,98581.95
2018-12-12T19:46:33.363Z,98585.74
2018-12-12T19:49:03.285Z,98581.77
2018-12-12T19:51:33.397Z,98580.54
2018-12-12T19:54:02.902Z,98583.33
2018-12-12T19:56:32.656Z,98583.48
2018-12-12T19:59:02.327Z,98586.37
2018-12-12T20:01:31.636Z,98582.87
2018-12-12T20:04:01.415Z,98578.27
2018-12-12T20:06:30.951Z,98576.22
2018-12-12T20:09:00.635Z,98572.42
2018-12-12T20:11:30.079Z,98574.22
2018-12-12T20:13:59.436Z,98578.09
2018-12-12T20:16:28.893Z,98569.41
2018-12-12T20:18:58.225Z,98562.23
2018-12-12T20:21:29.635Z,98564.45
2018-12-12T20:23:59.338Z,98568.40
2018-12-12T20:26:29.149Z,98561.28
2018-12-12T20:28:59.191Z,98559.87
2018-12-12T20:31:29.198Z,98562.57
2018-12-12T20:33:59.293Z,98563.42
2018-12-12T20:36:29.124Z,98560.25
2018-12-12T20:38:59.226Z,98562.05
2018-12-12T20:41:29.412Z,98565.55
2018-12-12T20:43:59.630Z,98558.56
2018-12-12T20:46:29.973Z,98556.73
2018-12-12T20:48:59.827Z,98558.41
2018-12-12T20:51:29.899Z,98558.22
2018-12-12T20:53:59.768Z,98558.36
2018-12-12T20:56:29.259Z,98562.67
2018-12-12T20:58:59.131Z,98561.97
2018-12-12T21:01:29.204Z,98562.97
2018-12-12T21:03:59.919Z,98555.19
2018-12-12T21:06:30.962Z,98553.52
2018-12-12T21:09:01.076Z,98549.51
2018-12-12T21:11:30.999Z,98554.61
2018-12-12T21:14:00.827Z,98551.78
2018-12-12T21:16:31.459Z,98547.44
2018-12-12T21:19:00.767Z,98551.64
2018-12-12T21:21:30.911Z,98526.43
2018-12-12T21:24:00.653Z,98548.30
2018-12-12T21:26:29.823Z,98547.92
2018-12-12T21:28:59.570Z,98554.92
2018-12-12T21:31:28.654Z,98558.20
2018-12-12T21:33:57.040Z,98552.76
2018-12-12T21:36:25.383Z,98548.25
2018-12-12T21:38:53.807Z,98547.17
2018-12-12T21:41:22.205Z,98531.14
2018-12-12T21:43:50.564Z,98552.00
2018-12-12T21:46:18.891Z,98554.53
2018-12-12T21:48:47.261Z,98555.13
2018-12-12T21:51:15.599Z,98552.41
2018-12-12T21:53:43.924Z,98552.11
2018-12-12T21:56:12.230Z,98552.34
2018-12-12T21:58:40.533Z,98544.89
2018-12-12T22:01:08.874Z,98543.13
2018-12-12T22:03:37.203Z,98543.98
2018-12-12T22:06:07.572Z,98540.40
2018-12-12T22:08:35.876Z,98542.89
2018-12-12T22:11:04.285Z,98535.89
2018-12-12T22:13:32.614Z,98539.02
2018-12-12T22:16:01.015Z,98542.08
2018-12-12T22:18:29.337Z,98540.80
2018-12-12T22:20:57.646Z,98538.54
2018-12-12T22:23:25.939Z,98533.86
2018-12-12T22:25:54.272Z,98535.80
2018-12-12T22:28:22.593Z,98534.87
2018-12-12T22:30:50.980Z,98531.85
2018-12-12T22:33:19.340Z,98531.78
2018-12-12T22:35:47.693Z,98528.77
2018-12-12T22:38:16.069Z,98532.30
2018-12-12T22:40:44.379Z,98536.31
2018-12-12T22:43:12.767Z,98528.34
2018-12-12T22:45:41.119Z,98532.00
2018-12-12T22:48:09.499Z,98529.45
2018-12-12T22:50:37.802Z,98531.08
2018-12-12T22:53:06.157Z,98530.92
2018-12-12T22:55:34.457Z,98526.91
2018-12-12T22:58:02.809Z,98527.33
2018-12-12T23:00:35.021Z,98527.69
2018-12-12T23:03:03.686Z,98531.83
2018-12-12T23:05:31.954Z,98531.90
2018-12-12T23:08:00.259Z,98528.78
2018-12-12T23:10:28.525Z,98530.45
2018-12-12T23:12:56.772Z,98528.73
2018-12-12T23:15:25.419Z,98532.75
2018-12-12T23:17:53.672Z,98540.16
2018-12-12T23:20:21.940Z,98536.09
2018-12-12T23:22:50.224Z,98535.91
2018-12-12T23:25:18.472Z,98533.62
2018-12-12T23:27:46.748Z,98529.69
2018-12-12T23:30:15.052Z,98525.89
2018-12-12T23:32:43.306Z,98526.28
2018-12-12T23:35:11.577Z,98525.27
2018-12-12T23:37:39.834Z,98520.74
2018-12-12T23:40:08.138Z,98515.31
2018-12-12T23:42:36.410Z,98517.73
2018-12-12T23:45:05.644Z,98510.85
2018-12-12T23:47:33.920Z,98506.38
2018-12-12T23:50:02.179Z,98511.70
2018-12-12T23:52:30.432Z,98515.48
2018-12-12T23:54:58.704Z,98506.13
2018-12-12T23:57:27.041Z,98512.84
2018-12-12T23:59:55.304Z,98512.28
